Forside
METAR-TAF:

METAR-TAF

Lufthavne :

Waukegan Regional Airport

Waukegan, Illinois, USA

Breddekreds: 42-25N, længdekreds: 087-52W, højde: 222 m

Aktuelle vejr

Denne rapport blev lavet for 43 minutter siden, kl. 07:55 UTC
Vind 4 kt fra nordvest
Temperatur 2°C
Fugtighed 64%
Tryk 1026 hPa
Sigt: 16.1 km
Brudte skyer i en højde af 7000 ft
Overskyet i en højde af 9000 ft

METAR: KUGN 270755Z AUTO 32004KT 10SM BKN070 OVC090 02/M04 A3031 RMK AO2 SLP275 T00171044

Tid: 03:38 (08:38 UTC)


TAF: fraværende

Vejrobservationer og prognoser fra mere end 4000 lufthavne (METAR og TAF).

De gule og røde prikker repræsenterer de meteorologiske stationer.

Flyt musen over at se navnet på stationen.

Så klik over at se vejr observationer og prognoser.

At skifte det kort: Klik på de grønne knapper med et sort kors for at zoome ind; på den grønne knap med en bindestreg for at zoome ud; eller på de grønne pile for tilstødende kort.


METAR-TAF: